Time;durP1;ratioP1;P1;durP2;ratioP2;P2;SDS_P1;SDS_P2;PMS_P1;PMS_P2;Temp;Humidity;BMP_temperature;BMP_pressure;BME280_temperature;BME280_humidity;BME280_pressure;Samples;Min_cycle;Max_cycle;Signal;HPM_P1;HPM_P2
2022/07/30 00:01:32;;;;;;;2.47;1.80;;;;;;;20.73;79.35;95665.06;4896178;29;20227;-85
2022/07/30 00:03:59;;;;;;;1.80;1.42;;;;;;;20.72;79.66;95668.72;4895941;29;20739;-85
2022/07/30 00:06:27;;;;;;;2.72;1.60;;;;;;;20.71;80.09;95655.88;4896995;29;20667;-85
2022/07/30 00:08:53;;;;;;;1.80;1.70;;;;;;;20.65;80.08;95657.59;4895135;29;20657;-85
2022/07/30 00:11:20;;;;;;;1.83;1.70;;;;;;;20.69;81.27;95663.94;4896128;29;20215;-85
2022/07/30 00:13:47;;;;;;;1.58;1.48;;;;;;;20.69;80.78;95661.34;4895958;29;20591;-85
2022/07/30 00:16:13;;;;;;;3.05;1.70;;;;;;;20.69;79.85;95658.72;4896974;29;20258;-84
2022/07/30 00:18:40;;;;;;;1.65;1.55;;;;;;;20.68;80.35;95655.31;4896421;29;20278;-84
2022/07/30 00:21:06;;;;;;;1.83;1.67;;;;;;;20.71;80.44;95653.25;4896274;29;20235;-84
2022/07/30 00:23:34;;;;;;;1.80;1.58;;;;;;;20.73;79.95;95648.56;4895658;29;20223;-85
2022/07/30 00:26:00;;;;;;;4.20;1.77;;;;;;;20.75;80.33;95652.53;4896756;29;20214;-85
2022/07/30 00:28:27;;;;;;;1.60;1.50;;;;;;;20.77;81.15;95654.91;4896528;29;20199;-84
2022/07/30 00:30:53;;;;;;;1.95;1.77;;;;;;;20.79;80.54;95648.38;4895294;29;20207;-84
2022/07/30 00:33:20;;;;;;;1.77;1.67;;;;;;;20.79;80.01;95643.16;4895734;29;20723;-84
2022/07/30 00:35:46;;;;;;;2.15;1.50;;;;;;;20.74;79.78;95642.31;4896487;29;20212;-85
2022/07/30 00:38:13;;;;;;;1.73;1.63;;;;;;;20.77;80.30;95641.84;4896186;29;20211;-85
2022/07/30 00:40:41;;;;;;;1.60;1.50;;;;;;;20.81;80.25;95643.72;4895975;29;20226;-84
2022/07/30 00:43:07;;;;;;;2.00;1.30;;;;;;;20.82;79.64;95641.88;4895755;29;20286;-85
2022/07/30 00:45:35;;;;;;;2.85;1.90;;;;;;;20.69;80.39;95641.19;4896236;29;20737;-85
2022/07/30 00:48:01;;;;;;;2.08;1.40;;;;;;;20.71;80.35;95640.94;4895829;29;20225;-84
2022/07/30 00:50:28;;;;;;;1.55;1.40;;;;;;;20.71;80.34;95640.94;4895695;29;20203;-85
2022/07/30 00:52:54;;;;;;;1.73;1.50;;;;;;;20.75;80.05;95647.31;4895528;29;20238;-85
2022/07/30 00:55:21;;;;;;;2.65;1.60;;;;;;;20.75;80.73;95641.28;4895979;29;20222;-85
2022/07/30 00:57:48;;;;;;;2.10;1.58;;;;;;;20.72;81.16;95631.28;4896231;29;20202;-84
2022/07/30 01:00:16;;;;;;;1.63;1.52;;;;;;;20.69;81.52;95638.56;4895686;29;20206;-84
2022/07/30 01:02:43;;;;;;;1.80;1.70;;;;;;;20.67;80.63;95638.00;4895454;29;20234;-85
2022/07/30 01:05:10;;;;;;;1.77;1.67;;;;;;;20.76;80.41;95637.63;4895993;29;20294;-84
2022/07/30 01:07:36;;;;;;;1.98;1.73;;;;;;;20.83;80.15;95646.88;4895923;29;20258;-85
2022/07/30 01:10:04;;;;;;;1.70;1.60;;;;;;;20.86;79.65;95640.38;4895792;29;20210;-85
2022/07/30 01:12:31;;;;;;;1.83;1.48;;;;;;;20.86;79.44;95633.31;4895267;29;20230;-85
2022/07/30 01:15:02;;;;;;;1.60;1.50;;;;;;;20.80;78.91;95636.09;4896004;29;20238;-84
2022/07/30 01:17:29;;;;;;;2.55;1.50;;;;;;;20.86;78.90;95628.09;4879795;29;20247;-85
2022/07/30 01:20:04;;;;;;;2.25;1.55;;;;;;;20.86;79.16;95637.78;4895482;29;20751;-85
2022/07/30 01:22:43;;;;;;;1.80;1.70;;;;;;;20.80;79.25;95629.03;4876641;29;20280;-85
2022/07/30 01:25:16;;;;;;;1.58;1.48;;;;;;;20.79;78.96;95624.84;4893179;29;20251;-85
2022/07/30 01:27:49;;;;;;;1.70;1.55;;;;;;;20.77;78.91;95632.16;4895154;29;20721;-85
2022/07/30 01:30:21;;;;;;;1.75;1.52;;;;;;;20.80;78.54;95623.00;4894630;29;20214;-85
2022/07/30 01:32:51;;;;;;;2.33;1.63;;;;;;;20.74;78.75;95618.75;4895036;29;20242;-85
2022/07/30 01:35:20;;;;;;;1.70;1.60;;;;;;;20.74;78.70;95616.13;4900440;29;20238;-85
2022/07/30 01:37:49;;;;;;;1.92;1.73;;;;;;;20.78;78.62;95612.03;4895366;29;20207;-85
2022/07/30 01:40:16;;;;;;;1.73;1.63;;;;;;;20.79;78.75;95617.00;4895000;29;20203;-85
2022/07/30 01:42:46;;;;;;;1.60;1.50;;;;;;;20.83;77.92;95620.72;4893547;29;20286;-85
2022/07/30 01:45:14;;;;;;;1.90;1.52;;;;;;;20.84;77.52;95626.75;4895443;29;20236;-85
2022/07/30 01:47:43;;;;;;;1.80;1.70;;;;;;;20.86;77.58;95622.84;4894908;29;20206;-85
2022/07/30 01:50:13;;;;;;;1.70;1.60;;;;;;;20.87;77.13;95618.41;4894175;29;20214;-85
2022/07/30 01:52:43;;;;;;;1.80;1.70;;;;;;;20.85;77.46;95615.25;4894314;29;20340;-85
2022/07/30 01:55:12;;;;;;;1.77;1.67;;;;;;;20.66;77.73;95615.50;4894968;29;20273;-85
2022/07/30 01:57:39;;;;;;;1.85;1.75;;;;;;;20.64;77.46;95611.53;4894687;29;20255;-86
2022/07/30 02:00:08;;;;;;;2.47;1.65;;;;;;;20.61;77.96;95617.22;4894313;29;20206;-86
2022/07/30 02:02:37;;;;;;;2.30;1.73;;;;;;;20.61;77.68;95614.63;4893976;29;20233;-85
2022/07/30 02:05:04;;;;;;;2.55;1.90;;;;;;;20.62;77.68;95621.44;4894808;29;20731;-85
2022/07/30 02:07:37;;;;;;;1.80;1.70;;;;;;;20.65;78.22;95615.72;4894460;29;20266;-85
2022/07/30 02:10:07;;;;;;;2.00;1.83;;;;;;;20.66;78.24;95618.13;4894117;29;20210;-85
2022/07/30 02:12:39;;;;;;;2.40;2.00;;;;;;;20.65;78.31;95619.16;4894230;29;20207;-85
2022/07/30 02:15:13;;;;;;;3.85;1.90;;;;;;;20.60;78.26;95621.66;4894526;29;20237;-85
2022/07/30 02:17:43;;;;;;;2.05;1.90;;;;;;;20.64;78.02;95617.56;4894512;29;20206;-86
2022/07/30 02:20:12;;;;;;;2.22;1.95;;;;;;;20.62;78.67;95624.06;4894184;29;20697;-85
2022/07/30 02:22:42;;;;;;;2.15;2.03;;;;;;;20.56;78.72;95619.78;4893915;29;20246;-85
2022/07/30 02:25:10;;;;;;;1.98;1.80;;;;;;;20.51;78.73;95620.50;4894898;29;20230;-85
2022/07/30 02:27:40;;;;;;;2.80;2.00;;;;;;;20.50;78.44;95618.13;4894236;29;20746;-85
2022/07/30 02:30:10;;;;;;;2.03;1.90;;;;;;;20.54;78.06;95616.63;4894094;29;20218;-85
2022/07/30 02:32:40;;;;;;;2.20;2.00;;;;;;;20.50;78.10;95621.53;4894212;29;20237;-85
2022/07/30 02:35:11;;;;;;;2.10;1.90;;;;;;;20.49;78.04;95612.09;4894969;29;20230;-85
2022/07/30 02:37:40;;;;;;;2.20;2.00;;;;;;;20.47;78.19;95622.00;4894419;29;20641;-85
2022/07/30 02:40:10;;;;;;;2.50;2.30;;;;;;;20.50;77.74;95631.19;4894224;29;20203;-85
2022/07/30 02:42:38;;;;;;;2.50;2.30;;;;;;;20.43;78.92;95639.19;4893608;29;20632;-85
2022/07/30 02:45:06;;;;;;;2.30;2.20;;;;;;;20.34;78.61;95635.34;4894424;29;20702;-85
2022/07/30 02:47:38;;;;;;;2.15;2.00;;;;;;;20.34;78.90;95624.91;4894377;29;20199;-85
2022/07/30 02:50:07;;;;;;;4.63;2.20;;;;;;;20.39;77.84;95622.41;4893887;29;20266;-85
2022/07/30 02:52:36;;;;;;;3.03;2.50;;;;;;;20.39;78.04;95619.78;4893874;29;20552;-85
2022/07/30 02:55:04;;;;;;;2.60;2.08;;;;;;;20.37;78.26;95616.63;4896948;29;20687;-85
2022/07/30 02:57:32;;;;;;;3.78;2.20;;;;;;;20.40;77.57;95616.13;4889250;29;20219;-85
2022/07/30 03:00:00;;;;;;;2.40;2.20;;;;;;;20.39;77.76;95616.38;4897677;29;20206;-85
2022/07/30 03:02:27;;;;;;;2.45;2.20;;;;;;;20.39;77.69;95613.75;4896663;29;20226;-85
2022/07/30 03:04:57;;;;;;;2.40;2.20;;;;;;;20.42;77.30;95615.88;4897796;29;20238;-86
2022/07/30 03:07:25;;;;;;;2.90;2.45;;;;;;;20.33;77.33;95611.03;4897772;29;20203;-85
2022/07/30 03:09:54;;;;;;;2.55;2.30;;;;;;;20.34;77.35;95614.44;4897720;29;20199;-85
2022/07/30 03:12:22;;;;;;;2.50;2.30;;;;;;;20.33;77.42;95607.63;4897040;29;20214;-85
2022/07/30 03:14:49;;;;;;;2.50;2.30;;;;;;;20.36;77.35;95609.75;4897699;29;20230;-85
2022/07/30 03:17:17;;;;;;;3.17;2.40;;;;;;;20.32;77.21;95601.59;4898222;29;20202;-85
2022/07/30 03:19:45;;;;;;;2.80;2.28;;;;;;;20.31;77.08;95602.63;4897355;29;20211;-85
2022/07/30 03:22:17;;;;;;;2.83;2.20;;;;;;;20.27;77.24;95604.13;4896925;29;20229;-85
2022/07/30 03:24:45;;;;;;;3.25;2.63;;;;;;;20.35;77.44;95605.56;4897351;29;20226;-84
2022/07/30 03:27:12;;;;;;;3.05;2.60;;;;;;;20.38;77.97;95605.13;4897566;29;20266;-85
2022/07/30 03:29:41;;;;;;;2.85;2.60;;;;;;;20.38;77.42;95606.94;4897429;29;20290;-85
2022/07/30 03:32:09;;;;;;;2.70;2.50;;;;;;;20.31;78.33;95604.44;4896857;29;20206;-85
2022/07/30 03:34:36;;;;;;;2.60;2.40;;;;;;;20.33;78.04;95602.38;4896693;29;20351;-85
2022/07/30 03:37:05;;;;;;;2.72;2.53;;;;;;;20.34;78.19;95609.22;4897161;29;20285;-85
2022/07/30 03:39:48;;;;;;;4.53;2.60;;;;;;;20.39;77.74;95619.00;4896952;29;20405;-85
2022/07/30 03:42:16;;;;;;;3.10;2.80;;;;;;;20.34;77.63;95614.44;4896252;29;20227;-85
2022/07/30 03:44:44;;;;;;;3.03;2.72;;;;;;;20.31;77.57;95613.09;4896583;29;20325;-85
2022/07/30 03:47:20;;;;;;;3.42;2.50;;;;;;;20.30;78.46;95624.56;4897324;29;20703;-85
2022/07/30 03:49:47;;;;;;;3.78;2.50;;;;;;;20.32;77.84;95622.50;4898099;29;20210;-83
2022/07/30 03:52:31;;;;;;;3.05;2.67;;;;;;;20.37;77.59;95623.66;4896596;29;20250;-83
2022/07/30 03:54:59;;;;;;;5.22;3.13;;;;;;;20.47;77.93;95631.66;4886902;29;20223;-83
2022/07/30 03:57:26;;;;;;;3.67;2.53;;;;;;;20.57;77.18;95635.25;4896744;29;20817;-83
2022/07/30 03:59:53;;;;;;;2.83;2.50;;;;;;;20.59;76.52;95642.88;4893987;29;20213;-83
2022/07/30 04:02:19;;;;;;;3.10;2.90;;;;;;;20.61;76.42;95646.81;4896364;29;20703;-83
2022/07/30 04:04:46;;;;;;;4.88;2.72;;;;;;;20.67;77.19;95642.44;4897038;29;20226;-83
2022/07/30 04:07:12;;;;;;;3.75;3.20;;;;;;;20.71;75.83;95642.78;4878178;29;20218;-83
2022/07/30 04:09:39;;;;;;;3.42;2.70;;;;;;;20.69;75.85;95653.47;4884927;29;20205;-83
2022/07/30 04:12:07;;;;;;;4.97;2.90;;;;;;;20.73;75.82;95659.03;4896716;29;20215;-82
2022/07/30 04:14:41;;;;;;;2.75;2.55;;;;;;;20.86;77.77;95662.13;4896405;29;20294;-83
2022/07/30 04:17:11;;;;;;;2.83;2.63;;;;;;;20.90;77.24;95668.47;4896955;29;20226;-83
2022/07/30 04:19:41;;;;;;;2.92;2.60;;;;;;;20.99;76.34;95669.63;4896919;29;20219;-83
2022/07/30 04:22:11;;;;;;;2.88;2.67;;;;;;;20.90;75.66;95671.09;4896451;29;20282;-84
2022/07/30 04:24:39;;;;;;;2.83;2.53;;;;;;;20.87;75.94;95666.31;4895650;29;20753;-82
2022/07/30 04:27:07;;;;;;;3.83;2.63;;;;;;;20.94;76.23;95671.41;4896710;29;20243;-83
2022/07/30 04:29:34;;;;;;;3.28;2.97;;;;;;;20.83;77.04;95674.88;4896278;29;20207;-83
2022/07/30 04:32:01;;;;;;;3.25;2.80;;;;;;;20.87;76.35;95681.22;4896032;29;20200;-83
2022/07/30 04:34:28;;;;;;;3.38;2.80;;;;;;;20.85;75.42;95685.91;4896013;28;20238;-83
2022/07/30 04:36:54;;;;;;;2.70;2.50;;;;;;;20.84;75.27;95684.31;4896692;29;20206;-83
2022/07/30 04:39:21;;;;;;;2.50;2.30;;;;;;;20.76;75.25;95680.28;4896437;29;20210;-82
2022/07/30 04:41:47;;;;;;;3.08;2.85;;;;;;;20.74;75.42;95682.34;4895572;29;20207;-86
2022/07/30 04:44:15;;;;;;;2.83;2.45;;;;;;;20.72;75.09;95691.47;4895387;29;20311;-86
2022/07/30 04:46:41;;;;;;;3.10;2.80;;;;;;;20.62;74.73;95689.47;4896666;29;20215;-85
2022/07/30 04:49:08;;;;;;;3.03;2.72;;;;;;;20.60;74.82;95689.69;4896453;29;20211;-85
2022/07/30 04:51:37;;;;;;;3.83;2.53;;;;;;;20.60;75.55;95697.53;4895850;29;20210;-86
2022/07/30 04:54:06;;;;;;;3.13;2.58;;;;;;;20.54;75.31;95693.28;4895918;29;20266;-86
2022/07/30 04:56:34;;;;;;;2.95;2.75;;;;;;;20.53;75.68;95696.13;4912920;29;20674;-85
2022/07/30 04:59:01;;;;;;;2.92;2.53;;;;;;;20.55;75.12;95696.69;4915295;29;20209;-85
2022/07/30 05:01:34;;;;;;;4.65;2.83;;;;;;;20.56;75.29;95693.84;4914439;29;20282;-85
2022/07/30 05:04:02;;;;;;;4.32;2.40;;;;;;;20.55;75.62;95699.31;4900882;29;20239;-85
2022/07/30 05:06:30;;;;;;;5.50;2.85;;;;;;;20.61;75.17;95693.09;4896235;29;20635;-85
2022/07/30 05:08:57;;;;;;;2.83;2.63;;;;;;;20.58;75.32;95691.00;4896313;29;20270;-86
2022/07/30 05:11:23;;;;;;;3.17;2.60;;;;;;;20.61;74.96;95693.09;4876855;29;20243;-86
2022/07/30 05:13:50;;;;;;;3.47;2.50;;;;;;;20.62;74.76;95692.06;4876788;29;20247;-86
2022/07/30 05:16:17;;;;;;;3.25;2.83;;;;;;;20.66;74.51;95694.00;4894289;29;20227;-86
2022/07/30 05:18:45;;;;;;;3.03;2.50;;;;;;;20.60;74.75;95696.75;4895391;29;20911;-87
2022/07/30 05:21:12;;;;;;;2.75;2.55;;;;;;;20.58;74.58;95697.00;4895240;29;20594;-86
2022/07/30 05:23:38;;;;;;;4.80;2.67;;;;;;;20.63;74.71;95704.13;4895286;29;20683;-86
2022/07/30 05:26:04;;;;;;;3.20;2.88;;;;;;;20.65;74.21;95707.31;4895973;29;20214;-86
2022/07/30 05:28:31;;;;;;;3.13;2.90;;;;;;;20.64;74.33;95711.75;4895816;29;20203;-87
2022/07/30 05:31:00;;;;;;;2.67;2.47;;;;;;;20.66;74.39;95706.28;4894948;29;20211;-85
2022/07/30 05:33:26;;;;;;;3.83;2.70;;;;;;;20.63;74.23;95706.75;4895140;29;20238;-85
2022/07/30 05:35:54;;;;;;;3.13;2.70;;;;;;;20.63;74.63;95717.22;4896265;29;20207;-84
2022/07/30 05:38:20;;;;;;;2.83;2.30;;;;;;;20.65;74.07;95717.78;4896309;29;20218;-84
2022/07/30 05:40:47;;;;;;;3.03;2.50;;;;;;;20.60;74.32;95722.91;4895319;29;20214;-85
2022/07/30 05:43:13;;;;;;;3.05;2.60;;;;;;;20.62;74.63;95718.25;4894713;29;20246;-84
2022/07/30 05:45:40;;;;;;;2.92;2.72;;;;;;;20.59;74.72;95719.50;4895563;29;20218;-84
2022/07/30 05:48:07;;;;;;;2.67;2.40;;;;;;;20.58;74.38;95717.16;4896236;29;20720;-84
2022/07/30 05:50:33;;;;;;;3.10;2.90;;;;;;;20.63;74.39;95719.84;4894833;29;20218;-84
2022/07/30 05:53:01;;;;;;;3.20;2.75;;;;;;;20.56;74.54;95722.63;4894865;29;20307;-85
2022/07/30 05:55:27;;;;;;;3.13;2.88;;;;;;;20.58;74.03;95736.25;4895835;29;20231;-84
2022/07/30 05:57:54;;;;;;;4.03;2.90;;;;;;;20.63;73.69;95727.69;4895249;29;20238;-84
2022/07/30 06:00:20;;;;;;;3.60;3.08;;;;;;;20.61;73.65;95730.53;4895146;29;20207;-84
2022/07/30 06:02:47;;;;;;;5.95;3.30;;;;;;;20.65;73.45;95733.47;4895245;29;20331;-84
2022/07/30 06:05:13;;;;;;;4.43;3.13;;;;;;;20.64;73.99;95731.88;4885103;29;20238;-84
2022/07/30 06:07:47;;;;;;;3.90;3.28;;;;;;;20.54;73.65;95731.72;4894998;29;20206;-85
2022/07/30 06:10:15;;;;;;;3.83;3.00;;;;;;;20.54;74.17;95747.41;4894154;29;20203;-87
2022/07/30 06:12:42;;;;;;;3.22;3.03;;;;;;;20.56;73.13;95743.53;4893835;29;20759;-86
2022/07/30 06:15:09;;;;;;;3.20;2.90;;;;;;;20.60;73.75;95741.22;4894546;29;20218;-87
2022/07/30 06:17:42;;;;;;;5.32;3.30;;;;;;;20.63;73.96;95743.38;4894199;29;20209;-87
2022/07/30 06:20:10;;;;;;;3.42;3.20;;;;;;;20.72;73.02;95743.81;4894307;29;20211;-86
2022/07/30 06:22:38;;;;;;;3.35;3.05;;;;;;;20.62;72.79;95747.81;4893982;29;20226;-87
2022/07/30 06:25:07;;;;;;;5.32;3.42;;;;;;;20.61;72.78;95748.06;4894684;29;20258;-86
2022/07/30 06:27:36;;;;;;;3.58;3.10;;;;;;;20.58;73.20;95754.56;4894479;29;20207;-86
2022/07/30 06:30:05;;;;;;;4.75;3.10;;;;;;;20.66;73.18;95751.56;4893867;29;20254;-86
2022/07/30 06:32:31;;;;;;;3.60;3.30;;;;;;;20.67;72.88;95758.38;4893932;29;20203;-87
2022/07/30 06:34:58;;;;;;;4.20;3.33;;;;;;;20.67;72.79;95768.84;4894622;29;20227;-87
2022/07/30 06:37:24;;;;;;;5.75;3.50;;;;;;;20.73;72.84;95763.72;4894788;29;20207;-86
2022/07/30 06:39:51;;;;;;;3.90;3.42;;;;;;;20.72;72.95;95764.75;4894735;29;20211;-86
2022/07/30 06:42:17;;;;;;;3.80;3.45;;;;;;;20.74;73.14;95767.91;4893970;29;20198;-86
2022/07/30 06:44:45;;;;;;;3.63;3.33;;;;;;;20.62;73.33;95781.03;4894283;29;20238;-87
2022/07/30 06:47:12;;;;;;;4.38;3.47;;;;;;;20.64;73.39;95773.75;4894527;29;20214;-86
2022/07/30 06:49:38;;;;;;;5.07;3.70;;;;;;;20.72;73.13;95773.38;4894256;29;20207;-86
2022/07/30 06:52:05;;;;;;;4.38;3.97;;;;;;;20.62;74.04;95775.81;4893886;29;20211;-86
2022/07/30 06:54:32;;;;;;;4.28;3.80;;;;;;;20.69;73.66;95773.84;4894163;29;20332;-87
2022/07/30 06:56:58;;;;;;;5.63;4.18;;;;;;;20.73;73.15;95779.41;4895077;29;20259;-87
2022/07/30 06:59:26;;;;;;;4.45;4.05;;;;;;;20.83;72.91;95780.38;4894823;29;20587;-87
2022/07/30 07:01:54;;;;;;;5.43;3.70;;;;;;;20.99;72.28;95778.81;4894469;29;20199;-86
2022/07/30 07:04:20;;;;;;;5.18;4.07;;;;;;;21.14;72.44;95781.69;4893847;29;20656;-86
2022/07/30 07:06:47;;;;;;;4.38;3.97;;;;;;;21.26;71.26;95786.88;4894428;29;20202;-86
2022/07/30 07:09:13;;;;;;;6.57;4.90;;;;;;;21.20;70.13;95783.38;4887896;29;20273;-87
2022/07/30 07:11:40;;;;;;;6.72;6.03;;;;;;;21.28;70.26;95782.97;4891693;29;20214;-86
2022/07/30 07:14:06;;;;;;;6.75;5.95;;;;;;;21.48;70.58;95787.75;4892258;29;20234;-86
2022/07/30 07:16:33;;;;;;;6.65;6.05;;;;;;;21.58;69.70;95787.09;4893412;29;20211;-86
2022/07/30 07:19:00;;;;;;;6.93;4.80;;;;;;;21.57;68.89;95785.50;4893466;29;20282;-86
2022/07/30 07:21:27;;;;;;;6.25;5.10;;;;;;;21.55;69.76;95779.72;4892151;29;20195;-86
2022/07/30 07:23:53;;;;;;;6.30;4.88;;;;;;;21.58;68.50;95780.00;4892663;29;20243;-86
2022/07/30 07:26:20;;;;;;;6.85;5.40;;;;;;;21.69;68.48;95779.13;4892578;29;20195;-86
2022/07/30 07:28:46;;;;;;;8.65;5.60;;;;;;;21.77;69.10;95780.53;4892223;29;20253;-86
2022/07/30 07:31:13;;;;;;;5.18;4.70;;;;;;;22.00;68.00;95784.81;4892580;29;20210;-86
2022/07/30 07:33:40;;;;;;;4.82;4.43;;;;;;;22.20;68.31;95785.06;4892032;29;20231;-87
2022/07/30 07:36:08;;;;;;;5.80;4.80;;;;;;;22.26;66.67;95789.34;4893258;29;20210;-86
2022/07/30 07:38:35;;;;;;;6.07;4.72;;;;;;;22.24;66.64;95782.75;4892507;29;20694;-87
2022/07/30 07:41:01;;;;;;;4.90;4.50;;;;;;;22.26;66.82;95784.09;4893188;29;20229;-85
2022/07/30 07:43:28;;;;;;;5.07;4.65;;;;;;;22.29;66.42;95777.56;4895353;29;20230;-86
2022/07/30 07:45:57;;;;;;;5.68;5.18;;;;;;;22.27;66.49;95782.25;4896999;29;20222;-87
2022/07/30 07:48:24;;;;;;;5.50;4.90;;;;;;;22.45;66.10;95774.06;4896147;29;20213;-87
2022/07/30 07:50:50;;;;;;;4.90;4.47;;;;;;;22.66;65.25;95775.06;4895520;29;20207;-87
2022/07/30 07:53:18;;;;;;;7.25;4.45;;;;;;;22.86;64.45;95772.69;4895766;29;20234;-86
2022/07/30 07:55:45;;;;;;;5.05;4.65;;;;;;;22.79;63.14;95772.06;4895559;29;20234;-86
2022/07/30 07:58:12;;;;;;;6.18;4.40;;;;;;;22.94;64.69;95768.78;4896626;29;20207;-88
2022/07/30 08:00:39;;;;;;;5.10;4.70;;;;;;;23.07;63.86;95774.44;4895394;29;20634;-88
2022/07/30 08:03:06;;;;;;;4.70;4.30;;;;;;;23.06;62.13;95762.34;4895127;29;20234;-88
2022/07/30 08:05:35;;;;;;;4.80;4.30;;;;;;;23.17;62.07;95771.09;4896389;29;20226;-85
2022/07/30 08:08:06;;;;;;;7.22;5.03;;;;;;;23.31;60.56;95769.63;4896978;29;20203;-84
2022/07/30 08:10:38;;;;;;;5.57;5.07;;;;;;;23.29;59.91;95782.22;4896159;29;20203;-85
2022/07/30 08:13:05;;;;;;;7.22;5.03;;;;;;;23.15;59.29;95780.25;4897742;29;20847;-84
2022/07/30 08:15:34;;;;;;;5.13;4.63;;;;;;;23.21;59.74;95779.25;4897468;29;20659;-85
2022/07/30 08:18:16;;;;;;;4.78;4.13;;;;;;;23.07;61.54;95786.78;4896728;29;20235;-85
2022/07/30 08:20:49;;;;;;;4.13;3.80;;;;;;;23.03;60.34;95778.59;4895692;29;20366;-86
2022/07/30 08:23:18;;;;;;;6.78;4.40;;;;;;;23.10;59.47;95778.38;4896003;29;20832;-85
2022/07/30 08:25:58;;;;;;;4.65;4.25;;;;;;;23.32;58.89;95783.53;4896814;29;20235;-85
2022/07/30 08:28:44;;;;;;;4.60;3.92;;;;;;;23.49;57.48;95792.06;4896301;29;20681;-85
2022/07/30 08:34:20;;;;;;;;;;;;;;;;;;;;;
2022/07/30 08:36:47;;;;;;;5.40;4.25;;;;;;;23.75;58.46;95778.09;4894105;29;20206;-85
2022/07/30 08:39:13;;;;;;;5.53;3.60;;;;;;;24.07;56.89;95785.88;4895906;29;20206;-84
2022/07/30 08:41:42;;;;;;;5.43;4.13;;;;;;;24.18;56.58;95780.69;4895469;29;20195;-84
2022/07/30 08:44:11;;;;;;;5.55;3.70;;;;;;;24.37;55.88;95780.00;4895066;29;20229;-85
2022/07/30 08:46:41;;;;;;;4.43;4.03;;;;;;;24.44;54.26;95780.53;4895339;29;20683;-84
2022/07/30 08:49:08;;;;;;;4.60;3.67;;;;;;;24.41;55.22;95775.78;4895897;29;20636;-84
2022/07/30 08:51:35;;;;;;;5.85;5.10;;;;;;;24.35;54.50;95789.97;4894080;29;20199;-84
2022/07/30 08:54:03;;;;;;;4.20;3.80;;;;;;;24.35;53.15;95776.81;4889170;29;20325;-86
2022/07/30 08:56:31;;;;;;;6.10;3.97;;;;;;;24.55;52.63;95786.63;4883754;29;20199;-84
2022/07/30 08:59:00;;;;;;;3.35;3.03;;;;;;;24.60;52.35;95784.00;4896160;29;20207;-86
2022/07/30 09:01:27;;;;;;;8.52;3.53;;;;;;;24.72;52.19;95787.19;4894928;29;20694;-85
2022/07/30 09:03:53;;;;;;;4.25;3.50;;;;;;;24.82;51.95;95788.28;4895213;28;20237;-85
2022/07/30 09:06:20;;;;;;;6.13;3.67;;;;;;;24.98;51.99;95790.69;4895490;29;20199;-85
2022/07/30 09:08:46;;;;;;;3.53;3.22;;;;;;;25.21;50.55;95780.69;4895329;29;20671;-84
2022/07/30 09:11:13;;;;;;;3.50;3.20;;;;;;;25.28;51.08;95789.91;4894589;29;20704;-85
2022/07/30 09:13:43;;;;;;;4.03;3.50;;;;;;;25.16;49.42;95786.75;4894807;29;20313;-85
2022/07/30 09:16:22;;;;;;;4.35;3.55;;;;;;;25.22;50.57;95777.78;4895475;29;20199;-84
2022/07/30 09:18:49;;;;;;;4.35;3.28;;;;;;;24.99;49.85;95780.94;4895213;29;20209;-84
2022/07/30 09:21:22;;;;;;;6.95;3.28;;;;;;;25.04;50.52;95789.63;4893819;29;20589;-84
2022/07/30 09:23:59;;;;;;;4.72;3.63;;;;;;;25.28;48.76;95784.63;4894102;29;20246;-84
2022/07/30 09:26:29;;;;;;;3.53;3.22;;;;;;;25.42;48.13;95790.16;4882173;29;20194;-84
2022/07/30 09:29:14;;;;;;;3.55;3.08;;;;;;;25.58;47.91;95772.50;4896108;29;20239;-87
2022/07/30 09:31:54;;;;;;;7.45;3.20;;;;;;;25.85;47.59;95774.81;4890317;29;20202;-86
2022/07/30 09:34:25;;;;;;;3.40;3.10;;;;;;;25.88;46.55;95779.56;4894647;29;20333;-86
2022/07/30 09:36:51;;;;;;;4.85;3.40;;;;;;;26.01;46.89;95776.34;4895168;29;20199;-86
2022/07/30 09:39:28;;;;;;;3.30;3.00;;;;;;;26.30;45.93;95777.34;4895067;29;20207;-86
2022/07/30 09:41:55;;;;;;;8.50;7.07;;;;;;;26.48;46.45;95774.09;4894518;29;20218;-86
2022/07/30 09:44:24;;;;;;;4.38;4.00;;;;;;;26.55;45.65;95784.38;4894197;29;20297;-85
2022/07/30 09:46:50;;;;;;;3.30;3.00;;;;;;;26.40;45.44;95784.41;4895062;29;20230;-84
2022/07/30 09:49:20;;;;;;;6.57;3.13;;;;;;;26.42;45.34;95784.94;4895149;29;20209;-85
2022/07/30 09:51:47;;;;;;;4.82;3.30;;;;;;;25.60;45.59;95773.00;4894226;29;20210;-85
2022/07/30 09:54:13;;;;;;;6.82;2.97;;;;;;;25.92;45.14;95788.53;4894261;29;20234;-85
2022/07/30 09:56:42;;;;;;;3.97;3.20;;;;;;;26.09;43.92;95781.09;4894716;29;20211;-85
2022/07/30 09:59:26;;;;;;;5.43;3.15;;;;;;;26.40;43.69;95774.66;4895065;29;20217;-85
2022/07/30 10:01:54;;;;;;;4.28;2.80;;;;;;;25.95;44.61;95778.25;4893991;29;20202;-86
2022/07/30 10:04:25;;;;;;;3.28;2.80;;;;;;;26.04;45.54;95786.38;4893631;29;20630;-84
2022/07/30 10:06:52;;;;;;;3.30;2.92;;;;;;;26.29;44.72;95778.41;4895072;29;20234;-84
2022/07/30 10:09:29;;;;;;;4.00;3.03;;;;;;;26.32;41.88;95779.72;4895388;29;20286;-85
2022/07/30 10:11:56;;;;;;;3.33;2.58;;;;;;;26.43;41.28;95775.97;4894260;29;20706;-86
2022/07/30 10:14:24;;;;;;;2.75;2.55;;;;;;;26.65;41.88;95768.44;4904316;29;20234;-82
2022/07/30 10:16:51;;;;;;;3.95;2.60;;;;;;;26.62;41.03;95769.00;4904579;29;20282;-82
2022/07/30 10:19:17;;;;;;;5.15;2.60;;;;;;;26.81;40.71;95777.84;4905462;29;20299;-81
2022/07/30 10:21:45;;;;;;;3.55;2.38;;;;;;;27.10;40.88;95767.38;4905697;29;20959;-82
2022/07/30 10:24:15;;;;;;;5.35;2.67;;;;;;;26.75;40.09;95773.66;4905640;29;20226;-82
2022/07/30 10:26:42;;;;;;;3.30;2.47;;;;;;;26.43;41.36;95781.25;4905807;29;20209;-82
2022/07/30 10:29:09;;;;;;;5.28;2.58;;;;;;;26.28;42.09;95781.28;4905820;29;20345;-81
2022/07/30 10:31:35;;;;;;;3.05;2.63;;;;;;;26.22;41.43;95775.22;4905351;29;20207;-82
2022/07/30 10:34:02;;;;;;;2.72;2.53;;;;;;;26.35;40.71;95777.34;4904266;29;20282;-82
2022/07/30 10:36:30;;;;;;;3.13;2.80;;;;;;;26.56;40.62;95774.56;4904283;29;20691;-82
2022/07/30 10:38:58;;;;;;;2.00;1.90;;;;;;;26.08;38.92;95772.38;4906091;29;20218;-81
2022/07/30 10:41:40;;;;;;;3.05;2.13;;;;;;;25.73;39.64;95775.13;4904066;29;20214;-82
2022/07/30 10:44:22;;;;;;;2.78;2.10;;;;;;;25.97;40.50;95775.34;4904442;29;20290;-83
2022/07/30 10:46:59;;;;;;;2.88;2.20;;;;;;;26.23;40.41;95782.09;4904188;29;20623;-81
2022/07/30 10:49:26;;;;;;;3.05;2.08;;;;;;;26.37;38.45;95772.53;4902382;29;20221;-81
2022/07/30 10:51:54;;;;;;;2.97;2.10;;;;;;;26.65;38.81;95770.31;4902308;29;20210;-81
2022/07/30 10:54:39;;;;;;;2.35;2.10;;;;;;;26.49;39.44;95778.31;4902158;29;20250;-82
2022/07/30 10:57:08;;;;;;;3.47;2.13;;;;;;;26.56;39.57;95777.22;4902115;29;20204;-82
2022/07/30 11:00:08;;;;;;;4.40;2.05;;;;;;;26.76;39.09;95783.16;4906899;29;20198;-80
2022/07/30 11:02:35;;;;;;;5.13;2.13;;;;;;;26.48;38.05;95768.03;4911789;29;20332;-81
2022/07/30 11:05:23;;;;;;;2.85;1.90;;;;;;;26.40;39.31;95771.22;4912639;29;20226;-81
2022/07/30 11:07:50;;;;;;;4.03;2.10;;;;;;;26.13;40.11;95771.59;4905957;29;20207;-81
2022/07/30 11:10:38;;;;;;;2.50;2.30;;;;;;;26.23;40.91;95786.56;4909762;29;20218;-81
2022/07/30 11:13:05;;;;;;;3.38;2.10;;;;;;;26.07;40.11;95784.00;4904659;29;20246;-83
2022/07/30 11:15:54;;;;;;;4.60;2.20;;;;;;;26.48;41.18;95783.88;4898615;29;20222;-83
2022/07/30 11:18:21;;;;;;;3.10;2.10;;;;;;;26.80;38.96;95773.63;4901146;29;20211;-83
2022/07/30 11:21:16;;;;;;;2.30;2.10;;;;;;;26.65;40.12;95776.38;4898693;29;20203;-83
2022/07/30 11:23:44;;;;;;;4.78;2.25;;;;;;;26.47;40.63;95771.72;4898919;29;20234;-83
2022/07/30 11:26:48;;;;;;;4.20;2.30;;;;;;;26.53;40.01;95769.84;4899645;29;20207;-83
2022/07/30 11:29:38;;;;;;;4.78;3.05;;;;;;;26.76;40.52;95764.66;4894104;29;20203;-83
2022/07/30 11:32:24;;;;;;;3.20;2.90;;;;;;;26.81;40.83;95766.50;4902864;29;20739;-83
2022/07/30 11:34:51;;;;;;;2.60;2.40;;;;;;;26.94;39.39;95759.81;4907227;29;20273;-81
2022/07/30 11:37:18;;;;;;;2.15;2.05;;;;;;;26.69;39.60;95763.41;4907814;29;20646;-81
2022/07/30 11:40:08;;;;;;;2.90;2.00;;;;;;;26.27;39.19;95769.16;4909895;29;20205;-81
2022/07/30 11:42:37;;;;;;;5.93;2.70;;;;;;;25.98;40.12;95776.91;4898133;29;20464;-81
2022/07/30 11:45:22;;;;;;;2.50;2.30;;;;;;;26.12;40.12;95781.34;4912935;29;20246;-79
2022/07/30 11:47:50;;;;;;;2.97;2.30;;;;;;;25.95;40.57;95777.44;4912423;29;20234;-81